Time;durP1;ratioP1;P1;durP2;ratioP2;P2;SDS_P1;SDS_P2;PMS_P1;PMS_P2;Temp;Humidity;BMP_temperature;BMP_pressure;BME280_temperature;BME280_humidity;BME280_pressure;Samples;Min_cycle;Max_cycle;Signal;HPM_P1;HPM_P2
2023/03/31 00:02:22;;;;;;;;;;;;;;;26.34;40.79;93792.84;4957132;28;7065;-56
2023/03/31 00:04:52;;;;;;;;;;;;;;;26.33;40.64;93786.59;4925479;28;7254;-56
2023/03/31 00:07:26;;;;;;;;;;;;;;;26.34;40.78;93776.31;4926909;28;8768;-56
2023/03/31 00:10:00;;;;;;;;;;;;;;;26.34;40.78;93771.53;4932051;28;8959;-56
2023/03/31 00:12:26;;;;;;;;;;;;;;;26.34;40.06;93781.81;4918400;28;7226;-56
2023/03/31 00:14:52;;;;;;;;;;;;;;;26.34;40.37;93785.31;4927365;28;8984;-56
2023/03/31 00:17:18;;;;;;;;;;;;;;;26.35;40.17;93786.06;4938866;28;9443;-56
2023/03/31 00:19:44;;;;;;;;;;;;;;;26.34;40.54;93776.31;4921954;28;7058;-56
2023/03/31 00:22:10;;;;;;;;;;;;;;;26.33;40.78;93774.81;4928785;28;7257;-56
2023/03/31 00:24:43;;;;;;;;;;;;;;;26.31;40.72;93775.34;4926295;28;7273;-56
2023/03/31 00:27:10;;;;;;;;;;;;;;;26.32;40.29;93774.06;4926714;28;7217;-56
2023/03/31 00:29:40;;;;;;;;;;;;;;;26.33;40.13;93774.81;4934406;28;7060;-56
2023/03/31 00:32:07;;;;;;;;;;;;;;;26.33;40.78;93764.53;4985743;28;8787;-56
2023/03/31 00:34:33;;;;;;;;;;;;;;;26.32;40.37;93751.28;5001147;28;8731;-56
2023/03/31 00:37:01;;;;;;;;;;;;;;;26.35;40.63;93761.25;5002404;28;9484;-57
2023/03/31 00:39:33;;;;;;;;;;;;;;;26.34;40.70;93759.78;5004438;28;8301;-56
2023/03/31 00:42:03;;;;;;;;;;;;;;;26.34;40.00;93762.53;5003511;28;8729;-56
2023/03/31 00:45:15;;;;;;;;;;;;;;;26.34;40.16;93759.78;5023816;28;7219;-56
2023/03/31 00:48:04;;;;;;;;;;;;;;;26.35;40.80;93752.97;5030618;28;8979;-56
2023/03/31 00:50:40;;;;;;;;;;;;;;;26.35;40.14;93755.72;5007938;28;7208;-56
2023/03/31 00:53:16;;;;;;;;;;;;;;;26.33;39.94;93742.47;4993358;28;7260;-56
2023/03/31 00:55:53;;;;;;;;;;;;;;;26.34;39.99;93737.72;5011174;28;7104;-56
2023/03/31 00:58:27;;;;;;;;;;;;;;;26.32;40.09;93724.44;5020142;28;9359;-56
2023/03/31 01:01:41;;;;;;;;;;;;;;;26.35;40.73;93722.63;4999283;28;8888;-56
2023/03/31 01:04:12;;;;;;;;;;;;;;;26.31;40.10;93711.94;4957935;28;9095;-56
2023/03/31 01:06:59;;;;;;;;;;;;;;;26.34;40.50;93699.13;4949294;28;7211;-56
2023/03/31 01:09:37;;;;;;;;;;;;;;;26.33;40.28;93698.38;4953214;28;7040;-56
2023/03/31 01:12:09;;;;;;;;;;;;;;;26.33;40.14;93692.09;4942337;28;6978;-56
2023/03/31 01:14:51;;;;;;;;;;;;;;;26.34;40.68;93699.13;4936514;28;7116;-56
2023/03/31 01:17:31;;;;;;;;;;;;;;;26.33;40.09;93692.09;4937589;28;7165;-56
2023/03/31 01:20:10;;;;;;;;;;;;;;;26.34;39.99;93682.56;4943560;28;7031;-56
2023/03/31 01:23:23;;;;;;;;;;;;;;;26.34;40.06;93683.28;4941326;28;7069;-56
2023/03/31 01:26:15;;;;;;;;;;;;;;;26.35;39.99;93678.53;4916316;29;9372;-56
2023/03/31 01:28:59;;;;;;;;;;;;;;;26.34;40.80;93671.53;4917217;29;8879;-56
2023/03/31 01:35:06;;;;;;;;;;;;;;;26.32;40.08;93674.09;4927993;29;9326;-56
2023/03/31 01:38:11;;;;;;;;;;;;;;;26.32;40.82;93663.06;4915405;29;7893;-56
2023/03/31 01:41:08;;;;;;;;;;;;;;;26.32;40.82;93668.59;4926714;29;9129;-56
2023/03/31 01:44:11;;;;;;;;;;;;;;;26.32;39.98;93665.81;4942835;28;8413;-56
2023/03/31 01:46:55;;;;;;;;;;;;;;;26.31;40.90;93665.06;4947566;29;7465;-56
2023/03/31 01:49:31;;;;;;;;;;;;;;;26.32;40.45;93663.78;4927234;29;7228;-56
2023/03/31 01:52:44;;;;;;;;;;;;;;;26.34;40.68;93669.50;4935695;29;7455;-56
2023/03/31 01:55:24;;;;;;;;;;;;;;;26.32;40.81;93668.59;4949427;28;7345;-56
2023/03/31 01:58:19;;;;;;;;;;;;;;;26.31;40.04;93656.06;4933240;29;7072;-56
2023/03/31 02:01:05;;;;;;;;;;;;;;;26.32;40.42;93663.06;4953619;28;7298;-56
2023/03/31 02:03:51;;;;;;;;;;;;;;;26.31;40.78;93662.31;4932344;29;7057;-56
2023/03/31 02:06:29;;;;;;;;;;;;;;;26.32;40.30;93663.06;4934415;28;9566;-56
2023/03/31 02:09:20;;;;;;;;;;;;;;;26.33;40.20;93659.75;4951765;28;8769;-56
2023/03/31 02:12:12;;;;;;;;;;;;;;;26.33;40.49;93661.78;4933892;28;6986;-56
2023/03/31 02:15:03;;;;;;;;;;;;;;;26.33;40.61;93659.75;4941243;28;7064;-56
2023/03/31 02:18:02;;;;;;;;;;;;;;;26.34;40.77;93661.22;4944823;28;9037;-56
2023/03/31 02:20:42;;;;;;;;;;;;;;;26.31;40.67;93645.03;4914189;29;7272;-56
2023/03/31 02:23:39;;;;;;;;;;;;;;;26.32;40.27;93641.00;4931253;29;9361;-56
2023/03/31 02:26:26;;;;;;;;;;;;;;;26.32;40.31;93636.22;4925598;29;8316;-56
2023/03/31 02:28:54;;;;;;;;;;;;;;;26.34;40.08;93633.66;4915790;29;8786;-56
2023/03/31 02:31:48;;;;;;;;;;;;;;;26.31;40.68;93622.97;4928878;29;9036;-56
2023/03/31 02:34:45;;;;;;;;;;;;;;;26.32;40.22;93619.69;4911923;29;9319;-56
2023/03/31 02:37:25;;;;;;;;;;;;;;;26.33;40.80;93614.91;4927205;29;7226;-56
2023/03/31 02:40:42;;;;;;;;;;;;;;;26.32;40.26;93616.19;4916633;29;8221;-56
2023/03/31 02:43:16;;;;;;;;;;;;;;;26.30;40.41;93605.69;4912030;29;7265;-56
2023/03/31 02:45:51;;;;;;;;;;;;;;;26.29;40.69;93592.44;4932777;29;9214;-56
2023/03/31 02:48:23;;;;;;;;;;;;;;;26.30;40.38;93588.41;4909936;29;7296;-56
2023/03/31 02:51:24;;;;;;;;;;;;;;;26.31;40.05;93576.09;4932520;29;7181;-56
2023/03/31 02:54:34;;;;;;;;;;;;;;;26.31;40.07;93568.59;4916624;29;7027;-56
2023/03/31 02:57:43;;;;;;;;;;;;;;;26.33;40.13;93571.53;4971431;28;8732;-56
2023/03/31 03:03:59;;;;;;;;;;;;;;;26.29;40.81;93548.34;4999723;28;7268;-56
2023/03/31 03:06:52;;;;;;;;;;;;;;;26.27;40.58;93546.13;5005233;28;8869;-56
2023/03/31 03:09:43;;;;;;;;;;;;;;;26.28;40.08;93547.59;5002737;28;7440;-56
2023/03/31 03:12:22;;;;;;;;;;;;;;;26.27;40.58;93518.56;5003724;28;7029;-56
2023/03/31 03:15:07;;;;;;;;;;;;;;;26.29;40.34;93518.00;4998408;28;7533;-57
2023/03/31 03:17:51;;;;;;;;;;;;;;;26.27;40.56;93495.75;5020565;28;9024;-56
2023/03/31 03:20:54;;;;;;;;;;;;;;;26.26;40.74;93489.50;4998819;28;7346;-56
2023/03/31 03:23:22;;;;;;;;;;;;;;;26.28;40.82;93497.22;5009456;28;7034;-56
2023/03/31 03:25:51;;;;;;;;;;;;;;;26.27;40.74;93491.00;5006681;28;8744;-56
2023/03/31 03:28:17;;;;;;;;;;;;;;;26.28;40.06;93472.41;5002792;28;7203;-56
2023/03/31 03:30:48;;;;;;;;;;;;;;;26.27;40.53;93451.66;5017546;28;7699;-56
2023/03/31 03:33:23;;;;;;;;;;;;;;;26.26;40.51;93461.19;5033052;28;7385;-56
2023/03/31 03:36:00;;;;;;;;;;;;;;;26.28;40.80;93440.06;5011136;28;9062;-56
2023/03/31 03:39:00;;;;;;;;;;;;;;;26.28;40.65;93426.28;5034876;28;9056;-56
2023/03/31 03:41:45;;;;;;;;;;;;;;;26.29;40.63;93407.75;4971091;28;9500;-56
2023/03/31 03:44:11;;;;;;;;;;;;;;;26.30;40.63;93395.44;4967539;28;7025;-56
2023/03/31 03:46:57;;;;;;;;;;;;;;;26.28;40.83;93393.22;4981083;28;7061;-56
2023/03/31 03:49:23;;;;;;;;;;;;;;;26.28;40.00;93376.69;4962195;28;7027;-56
2023/03/31 03:52:04;;;;;;;;;;;;;;;26.26;40.55;93359.19;4975287;28;7018;-56
2023/03/31 03:54:42;;;;;;;;;;;;;;;26.26;40.04;93357.19;4962697;28;7276;-56
2023/03/31 03:57:08;;;;;;;;;;;;;;;26.25;40.46;93349.47;4965955;28;9123;-56
2023/03/31 03:59:50;;;;;;;;;;;;;;;26.23;40.08;93330.69;4966756;28;8017;-56
2023/03/31 04:02:27;;;;;;;;;;;;;;;26.25;40.29;93321.91;4962806;28;9213;-56
2023/03/31 04:05:20;;;;;;;;;;;;;;;26.27;40.44;93319.34;4983241;28;8703;-56
2023/03/31 04:08:05;;;;;;;;;;;;;;;26.24;39.98;93314.91;4968072;28;7179;-56
2023/03/31 04:10:34;;;;;;;;;;;;;;;26.25;40.58;93311.63;4975476;28;8034;-56
2023/03/31 04:13:01;;;;;;;;;;;;;;;26.26;40.50;93307.56;4963230;28;7314;-56
2023/03/31 04:15:37;;;;;;;;;;;;;;;26.27;39.97;93302.81;4962562;28;7112;-56
2023/03/31 04:18:24;;;;;;;;;;;;;;;26.27;40.26;93305.56;4983480;28;7717;-56
2023/03/31 04:24:31;;;;;;;;;;;;;;;26.26;40.81;93291.03;5000694;28;7381;-56
2023/03/31 04:27:01;;;;;;;;;;;;;;;26.26;40.05;93280.00;5003545;28;7489;-56
2023/03/31 04:29:54;;;;;;;;;;;;;;;26.24;40.23;93279.06;5002704;28;9207;-56
2023/03/31 04:32:20;;;;;;;;;;;;;;;26.23;39.92;93269.34;5007595;28;8692;-56
2023/03/31 04:35:02;;;;;;;;;;;;;;;26.24;40.47;93277.06;5002392;28;7278;-56
2023/03/31 04:37:46;;;;;;;;;;;;;;;26.23;40.47;93278.31;5000220;28;7256;-56
2023/03/31 04:40:17;;;;;;;;;;;;;;;26.22;40.53;93296.16;5027161;28;7088;-56
2023/03/31 04:42:46;;;;;;;;;;;;;;;26.23;40.60;93296.91;5030252;28;8294;-56
2023/03/31 04:45:21;;;;;;;;;;;;;;;26.23;40.47;93291.38;5014265;28;7130;-56
2023/03/31 04:48:00;;;;;;;;;;;;;;;26.22;40.23;93279.63;5033748;28;9306;-56
2023/03/31 04:50:28;;;;;;;;;;;;;;;26.23;40.13;93283.81;5007179;28;9101;-56
2023/03/31 04:52:55;;;;;;;;;;;;;;;26.23;40.69;93289.34;5006872;28;9005;-56
2023/03/31 04:55:36;;;;;;;;;;;;;;;26.19;40.86;93264.16;5008517;28;7262;-56
2023/03/31 04:58:05;;;;;;;;;;;;;;;26.16;40.14;93259.72;5005235;28;7268;-56
2023/03/31 05:00:40;;;;;;;;;;;;;;;26.07;41.37;93247.16;4999624;28;9064;-56
2023/03/31 05:03:52;;;;;;;;;;;;;;;26.02;41.71;93230.75;4995436;28;9392;-56
2023/03/31 05:06:33;;;;;;;;;;;;;;;26.04;42.31;93209.66;5007443;28;7046;-56
2023/03/31 05:09:08;;;;;;;;;;;;;;;26.08;41.77;93201.81;5024554;28;7235;-56
2023/03/31 05:11:54;;;;;;;;;;;;;;;26.10;41.73;93184.72;5000254;28;7254;-56
2023/03/31 05:14:52;;;;;;;;;;;;;;;26.14;41.21;93180.34;5006087;28;7065;-56
2023/03/31 05:17:36;;;;;;;;;;;;;;;26.13;41.87;93167.09;4998137;28;9239;-56
2023/03/31 05:20:10;;;;;;;;;;;;;;;26.15;41.85;93153.53;5013399;28;9468;-56
2023/03/31 05:22:43;;;;;;;;;;;;;;;26.20;41.74;93162.91;5034672;28;7343;-56
2023/03/31 05:25:46;;;;;;;;;;;;;;;26.22;41.40;93157.59;5010803;28;8743;-56
2023/03/31 05:28:23;;;;;;;;;;;;;;;26.15;41.63;93175.56;4927815;28;9087;-56
2023/03/31 05:31:14;;;;;;;;;;;;;;;26.16;40.97;93177.78;4942057;28;9360;-56
2023/03/31 05:33:52;;;;;;;;;;;;;;;26.20;41.71;93196.72;4936099;28;7101;-56
2023/03/31 05:36:42;;;;;;;;;;;;;;;26.21;41.81;93161.66;4931735;28;8746;-55
2023/03/31 05:39:08;;;;;;;;;;;;;;;26.22;41.19;93168.63;4950433;28;8689;-56
2023/03/31 05:41:47;;;;;;;;;;;;;;;26.21;41.50;93169.91;4947435;28;9078;-56
2023/03/31 05:44:42;;;;;;;;;;;;;;;26.22;41.74;93185.91;4922032;29;9024;-56
2023/03/31 05:47:17;;;;;;;;;;;;;;;26.24;40.76;93188.09;4904521;29;7951;-56
2023/03/31 05:49:44;;;;;;;;;;;;;;;26.22;41.18;93179.66;4915125;29;7405;-57
2023/03/31 05:53:02;;;;;;;;;;;;;;;26.23;41.29;93178.38;4900940;29;7349;-57
2023/03/31 05:55:48;;;;;;;;;;;;;;;26.25;40.52;93189.59;4856108;29;7122;-56
2023/03/31 05:58:53;;;;;;;;;;;;;;;26.24;40.76;93224.69;4845986;29;7263;-56
2023/03/31 06:01:21;;;;;;;;;;;;;;;26.27;40.98;93206.31;4862013;29;9028;-56
2023/03/31 06:04:02;;;;;;;;;;;;;;;26.27;40.91;93187.78;4862232;29;7055;-56
2023/03/31 06:06:43;;;;;;;;;;;;;;;26.27;40.85;93204.31;4862162;29;7460;-56
2023/03/31 06:09:12;;;;;;;;;;;;;;;26.27;40.46;93209.09;4861326;29;7037;-57
2023/03/31 06:11:39;;;;;;;;;;;;;;;26.26;41.02;93213.09;4859185;29;9088;-56
2023/03/31 06:14:08;;;;;;;;;;;;;;;26.27;40.80;93217.34;4858932;29;7045;-56
2023/03/31 06:16:35;;;;;;;;;;;;;;;26.27;41.04;93220.09;4870001;29;7041;-57
2023/03/31 06:19:01;;;;;;;;;;;;;;;26.26;41.38;93210.34;4875971;29;9199;-56
2023/03/31 06:21:31;;;;;;;;;;;;;;;26.25;41.08;93219.91;4861573;29;7025;-56
2023/03/31 06:23:57;;;;;;;;;;;;;;;26.22;41.31;93213.47;4887478;29;9019;-56
2023/03/31 06:26:23;;;;;;;;;;;;;;;26.25;40.70;93248.22;4924848;29;8700;-56
2023/03/31 06:28:49;;;;;;;;;;;;;;;26.23;40.82;93242.47;4920717;29;9002;-56
2023/03/31 06:31:20;;;;;;;;;;;;;;;26.26;41.60;93230.38;4962468;28;9345;-56
2023/03/31 06:33:49;;;;;;;;;;;;;;;26.24;41.41;93212.91;5026132;28;7015;-56
2023/03/31 06:36:18;;;;;;;;;;;;;;;26.25;41.13;93217.91;5026278;28;7426;-56
2023/03/31 06:38:49;;;;;;;;;;;;;;;26.26;41.25;93213.84;4995028;28;8704;-56
2023/03/31 06:41:28;;;;;;;;;;;;;;;26.26;40.31;93215.84;5002507;28;7585;-56
2023/03/31 06:43:54;;;;;;;;;;;;;;;26.26;40.94;93208.34;4994364;28;8448;-56
2023/03/31 06:46:22;;;;;;;;;;;;;;;26.28;40.55;93205.78;5026042;28;7264;-56
2023/03/31 06:48:54;;;;;;;;;;;;;;;26.27;41.01;93228.38;5021427;28;6996;-56
2023/03/31 06:51:25;;;;;;;;;;;;;;;26.26;40.38;93232.41;5033440;28;7015;-56
2023/03/31 06:53:53;;;;;;;;;;;;;;;26.26;40.70;93233.13;5035559;28;9251;-56
2023/03/31 06:56:19;;;;;;;;;;;;;;;26.29;41.24;93256.13;5022760;28;7264;-56
2023/03/31 06:58:46;;;;;;;;;;;;;;;26.28;40.97;93257.41;5042841;28;9408;-56
2023/03/31 07:01:12;;;;;;;;;;;;;;;26.27;40.62;93264.94;4993137;28;7397;-56
2023/03/31 07:03:41;;;;;;;;;;;;;;;26.28;40.80;93271.94;5001248;28;9082;-56
2023/03/31 07:06:17;;;;;;;;;;;;;;;26.28;40.30;93304.25;5004136;28;7277;-56
2023/03/31 07:08:51;;;;;;;;;;;;;;;26.26;41.02;93279.25;5004976;28;9392;-56
2023/03/31 07:11:18;;;;;;;;;;;;;;;26.26;40.44;93304.06;5003735;28;8163;-56
2023/03/31 07:13:45;;;;;;;;;;;;;;;26.25;41.16;93321.91;5037392;28;9441;-56
2023/03/31 07:16:22;;;;;;;;;;;;;;;26.23;40.67;93333.44;5005781;28;9051;-56
2023/03/31 07:18:58;;;;;;;;;;;;;;;26.22;41.04;93331.97;5034683;28;7937;-56
2023/03/31 07:21:25;;;;;;;;;;;;;;;26.27;40.94;93322.09;4994451;28;9213;-56
2023/03/31 07:24:00;;;;;;;;;;;;;;;26.25;40.98;93316.38;4998359;28;7277;-56
2023/03/31 07:26:26;;;;;;;;;;;;;;;26.26;40.26;93323.38;4989752;28;8165;-56
2023/03/31 07:28:58;;;;;;;;;;;;;;;26.25;40.99;93316.38;4996820;28;9153;-56
2023/03/31 07:31:39;;;;;;;;;;;;;;;26.26;40.32;93318.59;5021658;28;9100;-56
2023/03/31 07:34:18;;;;;;;;;;;;;;;26.25;40.93;93308.88;5005224;28;8063;-56
2023/03/31 07:36:47;;;;;;;;;;;;;;;26.22;41.04;93300.91;5012243;28;7011;-56
2023/03/31 07:39:22;;;;;;;;;;;;;;;26.26;40.82;93318.59;5027675;28;7354;-56
2023/03/31 07:42:05;;;;;;;;;;;;;;;26.27;40.69;93319.34;5000831;28;9291;-56
2023/03/31 07:44:37;;;;;;;;;;;;;;;26.25;40.67;93310.88;5003619;28;7578;-56
2023/03/31 07:47:23;;;;;;;;;;;;;;;26.22;40.64;93311.94;5023426;28;7447;-56
2023/03/31 07:50:07;;;;;;;;;;;;;;;26.23;40.37;93307.91;5004690;28;9101;-56
2023/03/31 07:52:34;;;;;;;;;;;;;;;26.23;40.72;93302.41;5010728;28;9050;-56
2023/03/31 07:55:20;;;;;;;;;;;;;;;26.22;40.95;93301.66;4998784;28;9108;-57
2023/03/31 07:57:47;;;;;;;;;;;;;;;26.24;40.88;93295.59;4994161;28;7274;-57
2023/03/31 08:00:15;;;;;;;;;;;;;;;26.25;41.04;93294.34;5010737;28;7259;-56
2023/03/31 08:02:43;;;;;;;;;;;;;;;26.22;41.10;93287.88;5010999;28;8719;-56
2023/03/31 08:05:20;;;;;;;;;;;;;;;26.24;40.84;93301.13;5035703;28;6859;-56
2023/03/31 08:08:17;;;;;;;;;;;;;;;26.23;40.87;93286.59;4994851;28;8996;-56
2023/03/31 08:10:43;;;;;;;;;;;;;;;26.24;40.23;93271.53;4970394;28;8373;-56
2023/03/31 08:13:14;;;;;;;;;;;;;;;26.24;40.59;93277.06;4954174;28;9329;-56
2023/03/31 08:15:51;;;;;;;;;;;;;;;26.24;40.64;93271.53;4950161;28;6999;-56
2023/03/31 08:18:16;;;;;;;;;;;;;;;26.25;40.99;93266.78;4954035;28;9142;-56
2023/03/31 08:21:01;;;;;;;;;;;;;;;26.22;40.91;93273.34;4952452;28;9064;-56
2023/03/31 08:23:28;;;;;;;;;;;;;;;26.25;40.26;93289.56;4940523;28;8831;-56
2023/03/31 08:29:49;;;;;;;;;;;;;;;26.25;40.15;93269.53;4959155;28;6907;-56
2023/03/31 08:32:43;;;;;;;;;;;;;;;26.22;40.18;93273.34;4956651;28;7232;-56
2023/03/31 08:35:10;;;;;;;;;;;;;;;26.22;40.80;93270.59;4946112;28;8672;-56
2023/03/31 08:37:47;;;;;;;;;;;;;;;26.22;40.87;93279.63;4956429;28;7033;-56
2023/03/31 08:40:29;;;;;;;;;;;;;;;26.24;40.84;93287.34;4964957;28;9201;-56
2023/03/31 08:43:26;;;;;;;;;;;;;;;26.23;40.13;93272.81;4941279;28;9159;-56
2023/03/31 08:45:53;;;;;;;;;;;;;;;26.24;40.83;93276.31;4961873;28;7002;-56
2023/03/31 08:48:37;;;;;;;;;;;;;;;26.26;40.00;93273.75;4998012;28;9036;-56
2023/03/31 08:51:39;;;;;;;;;;;;;;;26.25;40.42;93272.28;4995168;28;8826;-56
2023/03/31 08:54:42;;;;;;;;;;;;;;;26.24;40.12;93255.00;5035358;28;9160;-56
2023/03/31 08:57:25;;;;;;;;;;;;;;;26.24;40.04;93243.22;4994275;28;8113;-56
2023/03/31 09:00:05;;;;;;;;;;;;;;;26.19;40.14;93230.34;5029046;28;9765;-56
2023/03/31 09:03:13;;;;;;;;;;;;;;;26.24;40.85;93240.47;5008777;28;9358;-56
2023/03/31 09:06:13;;;;;;;;;;;;;;;26.26;40.81;93235.16;5010021;28;9015;-56
2023/03/31 09:09:03;;;;;;;;;;;;;;;26.25;40.40;93230.94;5025729;28;7631;-56
2023/03/31 09:11:53;;;;;;;;;;;;;;;26.25;40.75;93230.94;5025614;28;7141;-56
2023/03/31 09:14:42;;;;;;;;;;;;;;;26.25;40.85;93253.00;5036516;28;7063;-56
2023/03/31 09:17:31;;;;;;;;;;;;;;;26.24;40.23;93287.34;5016923;28;7027;-56
2023/03/31 09:20:21;;;;;;;;;;;;;;;26.20;40.87;93268.38;5025411;28;8379;-56
2023/03/31 09:23:23;;;;;;;;;;;;;;;26.20;40.86;93342.06;5007114;28;6952;-56
2023/03/31 09:26:25;;;;;;;;;;;;;;;26.21;40.64;93332.53;4943127;29;7290;-56
2023/03/31 09:29:18;;;;;;;;;;;;;;;26.20;40.71;93320.75;4848421;29;9405;-57
2023/03/31 09:31:45;;;;;;;;;;;;;;;26.15;40.10;93297.56;4860564;29;8266;-56
2023/03/31 09:34:59;;;;;;;;;;;;;;;26.16;40.70;93290.78;4861509;29;6954;-56
2023/03/31 09:37:53;;;;;;;;;;;;;;;26.20;39.71;93270.41;4817852;29;9369;-56
2023/03/31 09:40:33;;;;;;;;;;;;;;;26.20;40.06;93275.91;4821530;29;7506;-56
2023/03/31 09:43:25;;;;;;;;;;;;;;;26.21;39.87;93277.41;4821479;29;7363;-56
2023/03/31 09:45:53;;;;;;;;;;;;;;;26.21;40.73;93260.88;4810543;29;9078;-56
2023/03/31 09:48:36;;;;;;;;;;;;;;;26.23;39.72;93263.81;4821864;29;9114;-56
2023/03/31 09:51:20;;;;;;;;;;;;;;;26.22;39.83;93213.47;4822877;29;9457;-56
2023/03/31 09:54:03;;;;;;;;;;;;;;;26.23;40.49;93219.72;4814325;29;9027;-56
2023/03/31 09:56:41;;;;;;;;;;;;;;;26.23;39.76;93234.22;4821320;29;7376;-56
2023/03/31 09:59:15;;;;;;;;;;;;;;;26.22;40.35;93243.78;4821599;29;9035;-56
2023/03/31 10:01:59;;;;;;;;;;;;;;;26.24;40.23;93230.19;4821013;29;7410;-56
2023/03/31 10:04:33;;;;;;;;;;;;;;;26.25;40.21;93217.16;4914030;28;7017;-56
2023/03/31 10:07:04;;;;;;;;;;;;;;;26.24;39.90;93207.41;4985655;28;9055;-56
2023/03/31 10:09:43;;;;;;;;;;;;;;;26.25;40.48;93197.84;4975261;28;8335;-56
2023/03/31 10:12:19;;;;;;;;;;;;;;;26.25;39.96;93192.34;4957221;28;7260;-56
2023/03/31 10:14:51;;;;;;;;;;;;;;;26.26;40.21;93191.06;4991942;28;7598;-56
2023/03/31 10:17:23;;;;;;;;;;;;;;;26.26;40.36;93193.81;5002714;28;7699;-56
2023/03/31 10:19:57;;;;;;;;;;;;;;;26.29;40.42;93195.50;5006831;28;9334;-56
2023/03/31 10:22:30;;;;;;;;;;;;;;;26.29;39.77;93184.47;5044604;28;9421;-56
2023/03/31 10:25:30;;;;;;;;;;;;;;;26.28;39.72;93191.25;5003360;28;7267;-56
2023/03/31 10:28:00;;;;;;;;;;;;;;;26.27;40.60;93164.97;4997331;28;7028;-56
2023/03/31 10:30:39;;;;;;;;;;;;;;;26.27;40.21;93159.47;5008890;28;7257;-56
2023/03/31 10:33:16;;;;;;;;;;;;;;;26.25;40.46;93145.50;4997190;28;9786;-56
2023/03/31 10:35:43;;;;;;;;;;;;;;;26.26;40.77;93136.66;4997890;28;7623;-56
2023/03/31 10:38:22;;;;;;;;;;;;;;;26.25;39.87;93120.69;5031591;28;9430;-56
2023/03/31 10:41:00;;;;;;;;;;;;;;;26.26;40.58;93136.66;5002111;28;7354;-56
2023/03/31 10:43:50;;;;;;;;;;;;;;;26.27;40.51;93124.38;5010486;28;8820;-56
2023/03/31 10:47:08;;;;;;;;;;;;;;;26.29;39.97;93134.84;5010223;28;7278;-56
2023/03/31 10:49:42;;;;;;;;;;;;;;;26.30;40.01;93108.75;4950875;28;7225;-56
2023/03/31 10:52:26;;;;;;;;;;;;;;;26.33;40.47;93119.44;4935469;28;9345;-56
2023/03/31 10:55:11;;;;;;;;;;;;;;;26.33;40.65;93110.41;4930156;28;9505;-56
2023/03/31 10:57:55;;;;;;;;;;;;;;;26.31;39.89;93104.72;4932901;28;9077;-56
2023/03/31 11:00:24;;;;;;;;;;;;;;;26.31;39.65;93104.72;4958329;28;7235;-56
2023/03/31 11:03:17;;;;;;;;;;;;;;;26.32;39.56;93082.09;4935786;28;8752;-56
2023/03/31 11:06:33;;;;;;;;;;;;;;;26.33;40.19;93071.81;4940197;28;8783;-56
2023/03/31 11:09:33;;;;;;;;;;;;;;;26.35;40.12;93072.00;4910398;29;7100;-56
2023/03/31 11:12:28;;;;;;;;;;;;;;;26.34;40.21;93076.78;4881034;29;9094;-56
2023/03/31 11:15:31;;;;;;;;;;;;;;;26.34;40.21;93085.06;4878220;29;9099;-56
2023/03/31 11:18:16;;;;;;;;;;;;;;;26.35;39.83;93092.06;4877654;29;9362;-56
2023/03/31 11:21:32;;;;;;;;;;;;;;;26.39;39.48;93091.69;4873371;29;9452;-56
2023/03/31 11:27:53;;;;;;;;;;;;;;;26.43;39.58;93084.53;4872076;29;6797;-56
2023/03/31 11:30:50;;;;;;;;;;;;;;;26.46;39.77;93093.72;4875463;29;7242;-57
2023/03/31 11:33:37;;;;;;;;;;;;;;;26.45;39.83;93093.00;4870393;29;7218;-56
2023/03/31 11:36:35;;;;;;;;;;;;;;;26.43;40.05;93084.53;4872318;29;8302;-56
2023/03/31 11:39:27;;;;;;;;;;;;;;;26.42;39.86;93091.34;4876176;29;7498;-57
2023/03/31 11:42:21;;;;;;;;;;;;;;;26.41;39.78;93098.13;4874954;29;7049;-56
2023/03/31 11:44:59;;;;;;;;;;;;;;;26.42;39.76;93087.84;4881670;29;9131;-56
2023/03/31 11:48:02;;;;;;;;;;;;;;;26.44;39.24;93088.03;4874848;29;7350;-57
2023/03/31 11:50:37;;;;;;;;;;;;;;;26.43;38.91;93086.53;4924347;28;9061;-56
2023/03/31 11:53:20;;;;;;;;;;;;;;;26.44;39.13;93086.03;4928056;28;9017;-56
2023/03/31 11:56:03;;;;;;;;;;;;;;;26.42;38.93;93068.53;4912076;29;7301;-56
2023/03/31 11:58:43;;;;;;;;;;;;;;;26.43;39.10;93075.50;4987946;28;9032;-56
2023/03/31 12:01:33;;;;;;;;;;;;;;;26.41;38.78;93075.34;5007550;28;9126;-56
2023/03/31 12:07:54;;;;;;;;;;;;;;;26.41;38.60;93080.84;5012831;28;7050;-56
2023/03/31 12:10:39;;;;;;;;;;;;;;;26.40;38.58;93080.13;5007736;28;8846;-56
2023/03/31 12:13:30;;;;;;;;;;;;;;;26.41;39.34;93087.09;5003244;28;9292;-56
2023/03/31 12:16:05;;;;;;;;;;;;;;;26.42;39.33;93101.63;4997013;28;9083;-56
2023/03/31 12:18:55;;;;;;;;;;;;;;;26.42;38.67;93104.38;5017136;28;6994;-56
2023/03/31 12:21:33;;;;;;;;;;;;;;;26.40;38.77;93123.50;4986991;28;8999;-56
2023/03/31 12:24:13;;;;;;;;;;;;;;;26.40;38.80;93140.03;5007628;28;7245;-57
2023/03/31 12:26:56;;;;;;;;;;;;;;;26.41;39.15;93120.19;5007052;28;9006;-56
2023/03/31 12:29:52;;;;;;;;;;;;;;;26.44;38.82;93140.41;5031905;28;8904;-56
2023/03/31 12:32:43;;;;;;;;;;;;;;;26.43;38.74;93145.19;5030495;28;9235;-56
2023/03/31 12:35:35;;;;;;;;;;;;;;;26.41;38.68;93207.66;5005020;28;7269;-56
2023/03/31 12:38:44;;;;;;;;;;;;;;;26.41;38.55;93188.38;4995233;28;8811;-56
2023/03/31 12:44:39;;;;;;;;;;;;;;;26.41;39.31;93188.38;4994319;28;7104;-56
2023/03/31 12:47:40;;;;;;;;;;;;;;;26.38;38.87;93190.19;5001151;28;7286;-56
2023/03/31 12:50:28;;;;;;;;;;;;;;;26.37;39.11;93190.75;5029699;28;7245;-57
2023/03/31 12:53:09;;;;;;;;;;;;;;;26.37;39.22;93204.53;5025808;28;7437;-56
2023/03/31 12:55:54;;;;;;;;;;;;;;;26.36;39.08;93208.59;5002797;28;7274;-56
2023/03/31 12:58:27;;;;;;;;;;;;;;;26.37;38.94;93194.25;5000320;28;9058;-56
2023/03/31 13:01:32;;;;;;;;;;;;;;;26.37;38.69;93188.72;5003642;28;9059;-56
2023/03/31 13:04:20;;;;;;;;;;;;;;;26.34;39.57;93176.03;5017516;28;8751;-56
2023/03/31 13:07:00;;;;;;;;;;;;;;;26.36;38.82;93165.19;5006873;28;9206;-56
2023/03/31 13:09:45;;;;;;;;;;;;;;;26.38;39.47;93179.16;5008103;28;8751;-56
2023/03/31 13:12:20;;;;;;;;;;;;;;;26.36;38.82;93167.22;5011036;28;7879;-57
2023/03/31 13:14:52;;;;;;;;;;;;;;;26.35;38.82;93163.72;4995206;28;7143;-56
2023/03/31 13:17:31;;;;;;;;;;;;;;;26.35;39.27;93160.97;5010343;28;9035;-56
2023/03/31 13:20:45;;;;;;;;;;;;;;;26.36;38.82;93178.97;5005031;28;7479;-57
2023/03/31 13:23:19;;;;;;;;;;;;;;;26.35;39.05;93199.56;5001122;28;8663;-56
2023/03/31 13:25:52;;;;;;;;;;;;;;;26.38;39.39;93206.00;5034333;28;9027;-56
2023/03/31 13:29:17;;;;;;;;;;;;;;;26.39;39.72;93182.66;4995968;28;7523;-56
2023/03/31 13:32:25;;;;;;;;;;;;;;;26.40;38.92;93206.22;4910053;29;7390;-56
2023/03/31 13:35:01;;;;;;;;;;;;;;;26.42;39.27;93225.69;4925736;29;7271;-56
2023/03/31 13:38:03;;;;;;;;;;;;;;;26.41;39.42;93257.28;4983783;28;8774;-56
2023/03/31 13:41:25;;;;;;;;;;;;;;;26.41;39.01;93247.00;5001744;28;9761;-56
2023/03/31 13:44:41;;;;;;;;;;;;;;;26.40;38.55;93244.81;4960313;28;7262;-56
2023/03/31 13:51:15;;;;;;;;;;;;;;;26.38;38.56;93203.25;4957222;28;8776;-56
2023/03/31 13:54:16;;;;;;;;;;;;;;;26.38;39.33;93226.03;4948187;28;8526;-56
2023/03/31 13:57:30;;;;;;;;;;;;;;;26.38;38.94;93203.97;4943178;28;7220;-56
2023/03/31 14:00:26;;;;;;;;;;;;;;;26.35;39.02;93183.03;4953039;28;9139;-56
2023/03/31 14:03:20;;;;;;;;;;;;;;;26.37;38.71;93180.47;4962398;28;7041;-56
2023/03/31 14:06:36;;;;;;;;;;;;;;;26.40;38.78;93195.19;4947170;28;7277;-56
2023/03/31 14:09:35;;;;;;;;;;;;;;;26.44;38.70;93195.56;4963234;28;7236;-56
2023/03/31 14:12:26;;;;;;;;;;;;;;;26.44;39.23;93190.78;4907173;29;7378;-56
2023/03/31 14:15:05;;;;;;;;;;;;;;;26.45;38.96;93180.47;4921007;29;7278;-56
2023/03/31 14:18:02;;;;;;;;;;;;;;;26.46;39.00;93184.72;4916578;29;9030;-56
2023/03/31 14:21:24;;;;;;;;;;;;;;;26.47;39.10;93177.94;4929806;28;7304;-56
2023/03/31 14:24:27;;;;;;;;;;;;;;;26.46;39.16;93179.94;4873325;29;9178;-56
2023/03/31 14:27:48;;;;;;;;;;;;;;;26.49;39.14;93176.09;4879470;29;7383;-56
2023/03/31 14:30:26;;;;;;;;;;;;;;;26.53;38.83;93173.72;4902087;29;7136;-57
2023/03/31 14:33:35;;;;;;;;;;;;;;;26.54;39.18;93160.66;4899217;29;8741;-56
2023/03/31 14:36:14;;;;;;;;;;;;;;;26.54;39.07;93149.63;4893136;29;8620;-56
2023/03/31 14:38:49;;;;;;;;;;;;;;;26.57;39.15;93126.50;4911789;29;9393;-56
2023/03/31 14:41:28;;;;;;;;;;;;;;;26.60;39.68;93122.66;4912497;29;8885;-56
2023/03/31 14:43:59;;;;;;;;;;;;;;;26.62;39.29;93109.75;4910032;29;9766;-56
2023/03/31 14:46:31;;;;;;;;;;;;;;;26.64;39.29;93103.72;4891595;29;9081;-56
2023/03/31 14:49:15;;;;;;;;;;;;;;;26.67;39.14;93113.63;4947457;28;8728;-56